Time;durP1;ratioP1;P1;durP2;ratioP2;P2;SDS_P1;SDS_P2;PMS_P1;PMS_P2;Temp;Humidity;BMP_temperature;BMP_pressure;BME280_temperature;BME280_humidity;BME280_pressure;Samples;Min_cycle;Max_cycle;Signal;HPM_P1;HPM_P2
2023/02/14 00:01:10;;;;;;;15.00;6.60;;;;;;;3.05;100.00;103371.09;6254113;28;20448;-74
2023/02/14 00:04:11;;;;;;;19.15;7.50;;;;;;;3.01;100.00;103368.41;6253895;28;20060;-74
2023/02/14 00:07:13;;;;;;;10.73;5.60;;;;;;;2.98;100.00;103379.59;6253970;28;20045;-74
2023/02/14 00:10:14;;;;;;;15.23;5.15;;;;;;;2.95;100.00;103373.44;6253705;28;20460;-74
2023/02/14 00:13:17;;;;;;;16.40;4.95;;;;;;;2.91;100.00;103375.13;6253161;28;20352;-74
2023/02/14 00:16:17;;;;;;;7.90;4.45;;;;;;;2.89;100.00;103376.81;6253476;28;20053;-74
2023/02/14 00:19:21;;;;;;;13.50;4.93;;;;;;;2.90;100.00;103378.53;6253663;28;20084;-74
2023/02/14 00:22:22;;;;;;;19.00;5.20;;;;;;;2.89;100.00;103382.00;6253571;28;20053;-76
2023/02/14 00:25:23;;;;;;;9.68;4.20;;;;;;;2.82;100.00;103382.72;6252979;28;20076;-76
2023/02/14 00:28:26;;;;;;;10.90;5.13;;;;;;;2.79;100.00;103375.72;6253558;28;20427;-76
2023/02/14 00:31:28;;;;;;;10.55;4.70;;;;;;;2.75;100.00;103383.44;6252965;28;20041;-73
2023/02/14 00:34:29;;;;;;;13.10;4.72;;;;;;;2.74;100.00;103390.34;6253369;28;20376;-73
2023/02/14 00:37:30;;;;;;;9.25;5.40;;;;;;;2.68;100.00;103376.34;6253149;28;20433;-73
2023/02/14 00:40:32;;;;;;;10.38;4.32;;;;;;;2.72;100.00;103381.63;6253291;28;20049;-73
2023/02/14 00:43:34;;;;;;;8.65;4.30;;;;;;;2.75;100.00;103378.22;6252855;28;20052;-73
2023/02/14 00:46:36;;;;;;;11.73;4.95;;;;;;;2.74;100.00;103379.97;6253025;28;20052;-74
2023/02/14 00:49:37;;;;;;;13.10;4.25;;;;;;;2.70;100.00;103372.06;6253077;28;20046;-74
2023/02/14 00:52:39;;;;;;;14.27;4.80;;;;;;;2.69;100.00;103372.91;6252997;28;20472;-74
2023/02/14 00:55:40;;;;;;;10.48;4.10;;;;;;;2.68;100.00;103381.53;6252925;28;20057;-74
2023/02/14 00:58:43;;;;;;;8.48;3.70;;;;;;;2.60;100.00;103378.78;6253036;28;20056;-74
2023/02/14 01:01:44;;;;;;;10.25;4.63;;;;;;;2.57;100.00;103386.50;6252771;28;20057;-74
2023/02/14 01:04:46;;;;;;;9.07;4.10;;;;;;;2.51;100.00;103386.38;6252776;28;20049;-74
2023/02/14 01:07:47;;;;;;;11.05;4.68;;;;;;;2.40;100.00;103385.22;6252509;28;20513;-74
2023/02/14 01:10:49;;;;;;;9.48;4.65;;;;;;;2.28;100.00;103378.06;6252164;28;20050;-74
2023/02/14 01:13:55;;;;;;;15.00;5.18;;;;;;;2.28;100.00;103380.66;6252207;28;20050;-74
2023/02/14 01:16:56;;;;;;;9.23;4.55;;;;;;;2.26;100.00;103378.00;6251637;28;20053;-74
2023/02/14 01:19:57;;;;;;;8.68;4.30;;;;;;;2.21;100.00;103377.00;6251678;28;20382;-74
2023/02/14 01:22:59;;;;;;;9.65;4.32;;;;;;;2.25;100.00;103377.97;6252011;28;20057;-74
2023/02/14 01:26:04;;;;;;;10.95;4.60;;;;;;;2.22;100.00;103376.16;6252083;28;20076;-74
2023/02/14 01:29:07;;;;;;;12.60;4.95;;;;;;;2.22;100.00;103378.75;6252132;28;20364;-74
2023/02/14 01:32:08;;;;;;;9.38;4.57;;;;;;;2.18;100.00;103379.56;6252478;28;20045;-74
2023/02/14 01:35:10;;;;;;;12.32;4.78;;;;;;;2.19;100.00;103386.50;6251281;28;20049;-74
2023/02/14 01:38:12;;;;;;;8.80;4.32;;;;;;;2.17;100.00;103377.78;6251505;28;20045;-74
2023/02/14 01:41:14;;;;;;;12.63;5.47;;;;;;;2.15;100.00;103376.00;6251891;28;20049;-74
2023/02/14 01:44:53;;;;;;;11.98;5.35;;;;;;;2.09;100.00;103376.75;6251539;28;20052;-74
2023/02/14 01:47:57;;;;;;;11.02;4.45;;;;;;;2.11;100.00;103376.78;6250818;28;20057;-76
2023/02/14 01:50:58;;;;;;;11.82;4.38;;;;;;;2.08;100.00;103377.56;6251724;28;20052;-74
2023/02/14 01:54:01;;;;;;;9.93;5.07;;;;;;;2.06;100.00;103381.84;6251143;28;20345;-74
2023/02/14 01:57:06;;;;;;;9.38;4.90;;;;;;;2.09;100.00;103375.84;6251129;28;20361;-74
2023/02/14 02:03:34;;;;;;;12.68;4.90;;;;;;;2.09;100.00;103371.56;6251306;28;20045;-74
2023/02/14 02:06:38;;;;;;;11.38;4.05;;;;;;;2.06;100.00;103375.78;6250812;28;20385;-74
2023/02/14 02:09:47;;;;;;;14.00;4.80;;;;;;;2.02;100.00;103367.94;6250480;28;20057;-74
2023/02/14 02:12:50;;;;;;;10.43;4.72;;;;;;;1.99;100.00;103366.97;6250953;28;20042;-74
2023/02/14 02:16:07;;;;;;;11.57;4.85;;;;;;;1.99;100.00;103365.25;6250992;28;20410;-74
2023/02/14 02:19:38;;;;;;;13.77;5.70;;;;;;;1.95;100.00;103362.53;6250954;28;20053;-74
2023/02/14 02:23:00;;;;;;;12.15;4.50;;;;;;;1.92;100.00;103362.50;6250804;28;20054;-74
2023/02/14 02:26:34;;;;;;;16.00;6.13;;;;;;;1.90;100.00;103353.78;6250920;28;20049;-74
2023/02/14 02:30:10;;;;;;;10.90;4.28;;;;;;;1.87;100.00;103357.19;6250624;28;20060;-74
2023/02/14 02:34:00;;;;;;;12.60;5.28;;;;;;;1.94;100.00;103345.25;6250761;28;20061;-76
2023/02/14 02:37:30;;;;;;;12.30;4.65;;;;;;;1.96;100.00;103343.56;6250635;28;20056;-76
2023/02/14 02:40:44;;;;;;;12.18;4.60;;;;;;;1.96;100.00;103334.06;6250152;28;20053;-74
2023/02/14 02:43:56;;;;;;;13.40;5.38;;;;;;;1.97;100.00;103337.53;6250575;28;20049;-76
2023/02/14 02:47:05;;;;;;;12.30;5.07;;;;;;;1.93;100.00;103334.00;6250424;28;20335;-76
2023/02/14 02:53:58;;;;;;;14.45;5.65;;;;;;;1.93;100.00;103334.00;6174677;28;20399;-76
2023/02/14 02:57:02;;;;;;;15.05;5.57;;;;;;;1.93;100.00;103325.34;6250138;28;20053;-76
2023/02/14 03:00:07;;;;;;;16.10;6.35;;;;;;;1.90;100.00;103323.53;6250189;28;20049;-74
2023/02/14 03:06:29;;;;;;;11.48;5.15;;;;;;;1.87;100.00;103307.94;6250096;28;20050;-76
2023/02/14 03:09:53;;;;;;;15.93;5.38;;;;;;;1.84;100.00;103312.16;6249764;28;20052;-76
2023/02/14 03:13:36;;;;;;;12.10;5.60;;;;;;;1.84;100.00;103304.38;6250189;28;20045;-74
2023/02/14 03:16:58;;;;;;;15.48;5.38;;;;;;;1.80;100.00;103303.41;6250268;28;20053;-74
2023/02/14 03:20:14;;;;;;;17.15;6.47;;;;;;;1.85;100.00;103295.75;6250394;28;20056;-74
2023/02/14 03:23:21;;;;;;;16.75;6.10;;;;;;;1.85;100.00;103300.94;6249885;28;20049;-74
2023/02/14 03:26:34;;;;;;;15.10;6.10;;;;;;;1.81;100.00;103297.38;6249904;28;20167;-74
2023/02/14 03:29:47;;;;;;;12.88;5.50;;;;;;;1.78;100.00;103294.75;6250244;28;20435;-74
2023/02/14 03:32:53;;;;;;;16.55;5.93;;;;;;;1.78;100.00;103289.56;6250034;28;20045;-74
2023/02/14 03:36:00;;;;;;;15.13;6.55;;;;;;;1.78;100.00;103287.84;6249669;28;20053;-74
2023/02/14 03:39:07;;;;;;;12.07;5.88;;;;;;;1.74;100.00;103282.53;6249577;28;20073;-74
2023/02/14 03:42:14;;;;;;;17.23;6.15;;;;;;;1.70;100.00;103281.59;6250058;28;20046;-74
2023/02/14 03:45:22;;;;;;;14.98;6.20;;;;;;;1.66;100.00;103274.56;6249769;28;20048;-74
2023/02/14 03:48:26;;;;;;;16.85;6.40;;;;;;;1.63;100.00;103276.22;6249642;28;20072;-75
2023/02/14 03:51:33;;;;;;;14.95;7.18;;;;;;;1.65;100.00;103279.72;6249727;28;20050;-74
2023/02/14 03:54:35;;;;;;;15.73;7.18;;;;;;;1.68;100.00;103285.88;6249471;28;20128;-74
2023/02/14 03:57:47;;;;;;;10.35;5.57;;;;;;;1.67;100.00;103285.81;6248844;28;20053;-74
2023/02/14 04:00:51;;;;;;;16.10;6.70;;;;;;;1.70;100.00;103283.31;6247195;28;20060;-74
2023/02/14 04:03:55;;;;;;;13.93;5.68;;;;;;;1.71;100.00;103282.47;6251138;28;20084;-75
2023/02/14 04:06:56;;;;;;;15.52;6.13;;;;;;;1.69;100.00;103272.06;6253772;28;20079;-74
2023/02/14 04:09:58;;;;;;;18.75;6.57;;;;;;;1.71;100.00;103269.50;6245992;28;20356;-74
2023/02/14 04:13:01;;;;;;;13.73;6.28;;;;;;;1.68;100.00;103270.31;6252257;28;20130;-75
2023/02/14 04:16:02;;;;;;;16.48;7.05;;;;;;;1.68;100.00;103264.22;6247397;28;20050;-74
2023/02/14 04:22:23;;;;;;;20.85;6.68;;;;;;;1.66;100.00;103259.03;6253394;28;20041;-75
2023/02/14 04:25:24;;;;;;;15.50;6.13;;;;;;;1.68;100.00;103264.22;6252718;28;20050;-74
2023/02/14 04:28:27;;;;;;;14.65;6.78;;;;;;;1.69;100.00;103263.41;6253415;28;20045;-75
2023/02/14 04:31:28;;;;;;;14.13;6.03;;;;;;;1.70;100.00;103254.78;6253259;28;20052;-74
2023/02/14 04:34:29;;;;;;;16.95;7.70;;;;;;;1.69;100.00;103255.66;6253183;28;20048;-74
2023/02/14 04:37:31;;;;;;;13.93;5.95;;;;;;;1.74;100.00;103254.03;6252956;28;20072;-75
2023/02/14 04:40:33;;;;;;;14.65;6.55;;;;;;;1.75;100.00;103258.38;6252996;28;20056;-75
2023/02/14 04:43:35;;;;;;;14.07;5.93;;;;;;;1.75;100.00;103245.41;6252759;28;20357;-75
2023/02/14 04:46:37;;;;;;;18.60;8.55;;;;;;;1.72;100.00;103251.38;6252139;28;20050;-75
2023/02/14 04:49:38;;;;;;;18.10;8.05;;;;;;;1.74;100.00;103246.25;6252686;28;20050;-74
2023/02/14 04:52:40;;;;;;;22.75;8.40;;;;;;;1.68;100.00;103246.09;6252756;28;20049;-74
2023/02/14 04:55:41;;;;;;;13.32;6.25;;;;;;;1.67;100.00;103250.41;6252508;28;20056;-74
2023/02/14 04:58:44;;;;;;;21.77;7.45;;;;;;;1.68;100.00;103244.41;6247686;28;20049;-74
2023/02/14 05:01:45;;;;;;;17.70;6.82;;;;;;;1.69;100.00;103238.38;6234173;28;20045;-75
2023/02/14 05:04:46;;;;;;;15.88;6.30;;;;;;;1.66;100.00;103238.28;6234444;28;20052;-75
2023/02/14 05:07:48;;;;;;;15.70;6.88;;;;;;;1.64;100.00;103239.97;6236512;28;20050;-74
2023/02/14 05:10:49;;;;;;;19.83;7.13;;;;;;;1.63;100.00;103239.94;6235539;28;20053;-74
2023/02/14 05:13:52;;;;;;;19.35;7.22;;;;;;;1.59;100.00;103243.28;6231471;28;20041;-75
2023/02/14 05:16:53;;;;;;;17.20;7.63;;;;;;;1.53;100.00;103241.41;6231102;28;20597;-75
2023/02/14 05:19:55;;;;;;;13.95;6.90;;;;;;;1.51;100.00;103246.59;6233419;28;20050;-75
2023/02/14 05:22:58;;;;;;;18.25;7.65;;;;;;;1.54;100.00;103240.56;6229757;28;20041;-75
2023/02/14 05:26:00;;;;;;;24.67;7.72;;;;;;;1.55;100.00;103239.75;6232533;28;20048;-75
2023/02/14 05:29:02;;;;;;;21.92;7.53;;;;;;;1.55;100.00;103226.81;6231158;28;20127;-75
2023/02/14 05:32:04;;;;;;;18.20;7.15;;;;;;;1.53;100.00;103234.53;6231707;28;20065;-74
2023/02/14 05:35:06;;;;;;;18.95;8.30;;;;;;;1.53;100.00;103231.94;6232412;28;20049;-75
2023/02/14 05:38:07;;;;;;;17.98;7.72;;;;;;;1.51;100.00;103232.75;6231780;28;20475;-75
2023/02/14 05:41:09;;;;;;;18.60;7.30;;;;;;;1.50;100.00;103239.66;6232083;28;20049;-75
2023/02/14 05:44:11;;;;;;;15.70;7.32;;;;;;;1.48;100.00;103235.25;6232673;28;20033;-75
2023/02/14 05:47:13;;;;;;;18.77;7.18;;;;;;;1.46;100.00;103229.19;6233244;28;20037;-75
2023/02/14 05:50:15;;;;;;;17.05;7.28;;;;;;;1.45;100.00;103235.19;6231643;28;20037;-75
2023/02/14 05:53:17;;;;;;;16.90;7.22;;;;;;;1.43;100.00;103231.69;6232736;28;20033;-78
2023/02/14 05:56:18;;;;;;;20.95;7.40;;;;;;;1.42;100.00;103233.41;6234405;28;20048;-76
2023/02/14 05:59:21;;;;;;;20.50;7.10;;;;;;;1.37;100.00;103242.78;6239238;28;20345;-75
2023/02/14 06:02:23;;;;;;;16.05;7.18;;;;;;;1.31;100.00;103232.25;6251046;28;20053;-75
2023/02/14 06:05:25;;;;;;;13.65;6.03;;;;;;;1.26;100.00;103236.44;6250756;28;20056;-74
2023/02/14 06:08:27;;;;;;;20.08;7.05;;;;;;;1.24;100.00;103243.31;6251087;28;20460;-75
2023/02/14 06:11:28;;;;;;;19.65;8.32;;;;;;;1.23;100.00;103245.03;6250257;28;20052;-74
2023/02/14 06:14:31;;;;;;;16.77;7.05;;;;;;;1.22;100.00;103244.97;6250903;28;20041;-74
2023/02/14 06:17:32;;;;;;;17.88;8.70;;;;;;;1.18;100.00;103248.31;6250725;28;20045;-74
2023/02/14 06:20:34;;;;;;;17.92;7.30;;;;;;;1.11;100.00;103252.47;6250497;28;20046;-74
2023/02/14 06:23:36;;;;;;;15.32;6.43;;;;;;;1.12;100.00;103251.63;6250447;28;20047;-74
2023/02/14 06:26:37;;;;;;;18.73;8.23;;;;;;;1.07;100.00;103249.75;6250495;28;20140;-75
2023/02/14 06:29:40;;;;;;;13.77;6.72;;;;;;;1.07;100.00;103248.03;6250746;28;20045;-75
2023/02/14 06:32:41;;;;;;;13.15;6.82;;;;;;;1.04;100.00;103247.06;6250167;28;20056;-76
2023/02/14 06:35:43;;;;;;;13.48;6.60;;;;;;;1.05;100.00;103260.09;6250218;28;20050;-75
2023/02/14 06:38:46;;;;;;;17.00;7.22;;;;;;;1.06;100.00;103250.59;6250516;28;20073;-77
2023/02/14 06:41:48;;;;;;;10.93;5.53;;;;;;;1.12;100.00;103245.56;6241701;28;20104;-74
2023/02/14 06:44:50;;;;;;;10.23;4.78;;;;;;;1.15;100.00;103251.72;6249874;28;20049;-74
2023/02/14 06:47:52;;;;;;;10.07;4.47;;;;;;;1.14;100.00;103257.72;6249947;28;20056;-74
2023/02/14 06:50:54;;;;;;;12.75;4.80;;;;;;;1.16;100.00;103258.63;6250289;28;20049;-75
2023/02/14 06:53:55;;;;;;;8.00;4.63;;;;;;;1.22;100.00;103255.31;6249871;28;20422;-74
2023/02/14 06:56:56;;;;;;;11.10;5.15;;;;;;;1.28;100.00;103265.88;6249954;28;20052;-76
2023/02/14 07:00:03;;;;;;;9.75;5.03;;;;;;;1.34;100.00;103257.38;6249502;28;20053;-75
2023/02/14 07:03:05;;;;;;;14.65;5.05;;;;;;;1.39;100.00;103266.13;6249956;28;20343;-74
2023/02/14 07:06:06;;;;;;;12.82;5.85;;;;;;;1.40;100.00;103260.09;6249687;28;20441;-74
2023/02/14 07:09:07;;;;;;;12.40;5.93;;;;;;;1.38;100.00;103265.25;6249567;28;20056;-75
2023/02/14 07:12:09;;;;;;;15.50;7.47;;;;;;;1.31;100.00;103257.28;6249423;28;20069;-75
2023/02/14 07:15:13;;;;;;;15.23;7.13;;;;;;;1.32;100.00;103252.16;6249134;28;20052;-75
2023/02/14 07:18:14;;;;;;;15.20;7.15;;;;;;;1.40;100.00;103260.97;6249390;28;20053;-74
2023/02/14 07:21:16;;;;;;;16.67;7.40;;;;;;;1.43;100.00;103261.06;6249320;28;20366;-74
2023/02/14 07:24:17;;;;;;;20.42;7.53;;;;;;;1.40;100.00;103262.69;6248981;28;20042;-74
2023/02/14 07:27:19;;;;;;;20.13;7.63;;;;;;;1.44;100.00;103261.94;6248972;28;20045;-74
2023/02/14 07:30:21;;;;;;;15.23;6.32;;;;;;;1.46;100.00;103255.97;6249205;28;20042;-75
2023/02/14 07:33:23;;;;;;;22.73;8.02;;;;;;;1.54;100.00;103256.13;6248911;28;20052;-75
2023/02/14 07:36:24;;;;;;;15.27;5.88;;;;;;;1.60;100.00;103256.28;6254278;28;20045;-74
2023/02/14 07:39:25;;;;;;;16.83;6.05;;;;;;;1.51;100.00;103254.34;6253879;28;20099;-75
2023/02/14 07:42:27;;;;;;;13.35;5.78;;;;;;;1.42;100.00;103255.84;6254328;28;20052;-74
2023/02/14 07:45:29;;;;;;;15.23;6.50;;;;;;;1.45;100.00;103256.81;6254170;28;20057;-74
2023/02/14 07:48:31;;;;;;;12.68;6.10;;;;;;;1.47;100.00;103255.13;6254091;28;20041;-74
2023/02/14 07:51:32;;;;;;;13.65;5.53;;;;;;;1.51;100.00;103254.34;6253472;28;20046;-74
2023/02/14 07:54:34;;;;;;;11.38;5.57;;;;;;;1.52;100.00;103240.56;6253057;28;20123;-74
2023/02/14 07:57:35;;;;;;;12.77;5.95;;;;;;;1.45;100.00;103251.63;6249125;28;20037;-74
2023/02/14 08:00:38;;;;;;;11.75;5.70;;;;;;;1.52;100.00;103260.41;6254911;28;20075;-75
2023/02/14 08:03:39;;;;;;;14.40;5.47;;;;;;;1.39;100.00;103261.81;6252377;28;20357;-74
2023/02/14 08:06:41;;;;;;;14.45;5.70;;;;;;;1.47;100.00;103260.28;6252735;28;20053;-77
2023/02/14 08:09:42;;;;;;;16.25;7.97;;;;;;;1.49;100.00;103268.09;6252553;28;20052;-73
2023/02/14 08:12:59;;;;;;;16.45;6.70;;;;;;;1.46;100.00;103262.88;6253022;28;20060;-73
2023/02/14 08:16:04;;;;;;;13.85;6.63;;;;;;;1.50;100.00;103268.16;6259219;28;20053;-72
2023/02/14 08:19:06;;;;;;;15.38;5.85;;;;;;;1.56;100.00;103270.00;6253494;28;20485;-72
2023/02/14 08:22:08;;;;;;;13.40;6.68;;;;;;;1.58;100.00;103272.63;6253602;28;20331;-73
2023/02/14 08:25:09;;;;;;;12.57;5.57;;;;;;;1.56;100.00;103267.41;6252456;28;20045;-74
2023/02/14 08:28:12;;;;;;;15.48;7.93;;;;;;;1.50;100.00;103265.56;6247552;28;20041;-73
2023/02/14 08:31:22;;;;;;;18.08;6.63;;;;;;;1.52;100.00;103271.66;6253749;28;20361;-72
2023/02/14 08:34:23;;;;;;;15.60;6.82;;;;;;;1.65;100.00;103269.38;6249136;28;20044;-74
2023/02/14 08:37:25;;;;;;;17.33;5.82;;;;;;;1.70;100.00;103266.03;6252783;28;20053;-74
2023/02/14 08:40:26;;;;;;;16.25;6.85;;;;;;;1.64;100.00;103267.63;6252552;28;20042;-73
2023/02/14 08:43:28;;;;;;;13.82;6.90;;;;;;;1.72;100.00;103266.06;6252193;28;20356;-74
2023/02/14 08:46:30;;;;;;;11.30;6.05;;;;;;;1.80;100.00;103263.66;6252318;28;20369;-74
2023/02/14 08:49:32;;;;;;;12.25;5.63;;;;;;;1.86;100.00;103258.59;6252607;28;20349;-75
2023/02/14 08:52:33;;;;;;;15.32;6.18;;;;;;;1.92;100.00;103261.38;6252587;28;20045;-76
2023/02/14 08:55:36;;;;;;;12.20;6.35;;;;;;;1.95;100.00;103259.72;6252392;28;20053;-75
2023/02/14 08:58:38;;;;;;;12.55;6.40;;;;;;;1.98;100.00;103264.97;6252191;28;20073;-76
2023/02/14 09:01:41;;;;;;;11.35;4.95;;;;;;;2.08;100.00;103268.63;6252739;28;20449;-76
2023/02/14 09:04:42;;;;;;;12.05;5.82;;;;;;;2.13;100.00;103271.31;6252078;28;20053;-76
2023/02/14 09:07:44;;;;;;;15.38;6.50;;;;;;;2.19;100.00;103266.28;6252043;28;20434;-76
2023/02/14 09:10:45;;;;;;;10.80;4.88;;;;;;;2.25;100.00;103263.81;6251734;28;20453;-75
2023/02/14 09:13:47;;;;;;;10.68;5.05;;;;;;;2.27;100.00;103265.63;6252062;28;20053;-75
2023/02/14 09:16:50;;;;;;;10.30;4.72;;;;;;;2.34;100.00;103260.56;6251956;28;20056;-75
2023/02/14 09:19:51;;;;;;;12.60;5.63;;;;;;;2.39;100.00;103267.59;6251881;28;20465;-74
2023/02/14 09:22:55;;;;;;;16.05;6.30;;;;;;;2.45;100.00;103257.34;6251941;28;20429;-75
2023/02/14 09:26:00;;;;;;;13.52;6.53;;;;;;;2.50;100.00;103257.44;6251688;28;20052;-75
2023/02/14 09:29:02;;;;;;;16.42;6.35;;;;;;;2.52;100.00;103255.75;6251871;28;20184;-75
2023/02/14 09:32:05;;;;;;;12.68;6.30;;;;;;;2.59;100.00;103233.38;6251430;28;20060;-75
2023/02/14 09:38:25;;;;;;;;;;;;;;;2.71;100.00;103231.91;6251055;28;20049;-76
2023/02/14 09:42:00;;;;;;;12.63;6.32;;;;;;;2.77;100.00;103233.72;6250974;28;19928;-75
2023/02/14 09:45:06;;;;;;;13.35;7.00;;;;;;;2.74;100.00;103228.50;6251484;28;20353;-77
2023/02/14 09:48:18;;;;;;;10.73;6.28;;;;;;;2.80;100.00;103228.59;6250756;28;20452;-76
2023/02/14 09:51:24;;;;;;;13.02;5.90;;;;;;;2.89;100.00;103223.56;6251164;28;20049;-76
2023/02/14 09:54:28;;;;;;;15.60;6.95;;;;;;;2.99;100.00;103225.50;6251153;28;20072;-76
2023/02/14 09:57:46;;;;;;;14.90;5.55;;;;;;;3.05;100.00;103217.81;6250685;28;20046;-76
2023/02/14 10:00:56;;;;;;;13.35;6.63;;;;;;;3.08;100.00;103218.72;6242912;28;20587;-75
2023/02/14 10:04:12;;;;;;;12.23;5.78;;;;;;;3.17;100.00;103229.25;6249101;28;20349;-77
2023/02/14 10:07:23;;;;;;;12.35;5.88;;;;;;;3.26;100.00;103226.81;6243151;28;20049;-75
2023/02/14 10:10:29;;;;;;;11.98;5.63;;;;;;;3.34;100.00;103220.03;6248117;28;20425;-76
2023/02/14 10:13:37;;;;;;;8.93;5.15;;;;;;;3.46;100.00;103230.63;6247944;28;20046;-75
2023/02/14 10:16:44;;;;;;;16.20;5.40;;;;;;;3.58;100.00;103223.88;6250224;28;20045;-76
2023/02/14 10:19:51;;;;;;;13.75;6.20;;;;;;;3.69;100.00;103218.00;6249250;28;20065;-76
2023/02/14 10:23:01;;;;;;;12.70;5.93;;;;;;;3.83;100.00;103214.72;6248076;28;20049;-77
2023/02/14 10:26:05;;;;;;;13.52;6.25;;;;;;;3.93;100.00;103206.19;6249461;28;20038;-76
2023/02/14 10:29:12;;;;;;;15.32;6.82;;;;;;;4.04;100.00;103200.28;6247463;28;20119;-76
2023/02/14 10:32:19;;;;;;;22.05;6.97;;;;;;;4.16;100.00;103193.47;6247391;28;20053;-78
2023/02/14 10:35:31;;;;;;;14.57;6.47;;;;;;;4.29;100.00;103193.66;6249686;28;20053;-77
2023/02/14 10:38:42;;;;;;;13.90;5.80;;;;;;;4.39;100.00;103192.03;6245554;28;20047;-75
2023/02/14 10:41:52;;;;;;;11.80;6.35;;;;;;;4.49;100.00;103183.47;6250089;28;20060;-76
2023/02/14 10:45:02;;;;;;;11.60;5.25;;;;;;;4.62;100.00;103184.47;6247891;28;20061;-76
2023/02/14 10:48:15;;;;;;;12.52;5.93;;;;;;;4.71;100.00;103184.56;6246752;28;20058;-77
2023/02/14 10:51:24;;;;;;;10.48;4.88;;;;;;;4.82;100.00;103184.69;6249737;28;20045;-77
2023/02/14 10:54:27;;;;;;;10.90;5.60;;;;;;;5.02;100.00;103180.53;6249562;28;20038;-78
2023/02/14 10:57:34;;;;;;;17.95;6.22;;;;;;;5.13;100.00;103174.53;6249401;28;20056;-77
2023/02/14 11:00:39;;;;;;;12.02;5.72;;;;;;;5.35;100.00;103173.84;6249811;28;20052;-77
2023/02/14 11:03:51;;;;;;;13.55;6.10;;;;;;;5.56;100.00;103173.13;6249403;28;20064;-76
2023/02/14 11:06:54;;;;;;;9.48;5.05;;;;;;;5.71;100.00;103164.53;6247766;28;20044;-76
2023/02/14 11:09:55;;;;;;;13.02;5.90;;;;;;;6.00;100.00;103160.38;6253459;28;20046;-78
2023/02/14 11:12:57;;;;;;;11.18;6.03;;;;;;;6.13;100.00;103157.78;6251691;28;20054;-77
2023/02/14 11:16:00;;;;;;;12.73;5.43;;;;;;;6.43;100.00;103157.91;6247967;28;20141;-76
2023/02/14 11:19:18;;;;;;;13.98;5.95;;;;;;;6.47;100.00;103148.34;6245860;28;20331;-76
2023/02/14 11:22:29;;;;;;;14.95;5.82;;;;;;;6.66;100.00;103144.03;6254741;28;20452;-76
2023/02/14 11:25:34;;;;;;;11.40;5.25;;;;;;;6.77;100.00;103143.19;6254345;28;20136;-78
2023/02/14 11:28:35;;;;;;;11.95;5.35;;;;;;;6.95;100.00;103144.03;6254629;28;20092;-78
2023/02/14 11:31:38;;;;;;;11.25;5.03;;;;;;;7.22;100.00;103144.06;6254379;28;20361;-76
2023/02/14 11:34:41;;;;;;;10.00;5.05;;;;;;;7.37;100.00;103137.94;6254349;28;20053;-76
2023/02/14 11:37:50;;;;;;;9.00;4.95;;;;;;;7.57;100.00;103133.50;6253987;28;20057;-78
2023/02/14 11:40:55;;;;;;;8.93;4.97;;;;;;;7.81;100.00;103129.97;6254204;28;20049;-78
2023/02/14 11:44:14;;;;;;;9.82;4.97;;;;;;;7.98;100.00;103126.41;6254298;28;20045;-78
2023/02/14 11:47:24;;;;;;;12.05;5.30;;;;;;;8.09;100.00;103124.63;6254122;28;20124;-78
2023/02/14 11:50:27;;;;;;;8.68;5.25;;;;;;;8.36;100.00;103119.28;6254070;28;20349;-78
2023/02/14 11:53:38;;;;;;;8.50;4.10;;;;;;;8.33;100.00;103111.38;6253723;28;20426;-78
2023/02/14 11:56:47;;;;;;;9.48;5.00;;;;;;;8.34;100.00;103105.25;6253953;28;20037;-78
2023/02/14 11:59:53;;;;;;;7.75;4.55;;;;;;;8.47;100.00;103105.22;6253848;28;20195;-75
2023/02/14 12:02:55;;;;;;;7.78;4.28;;;;;;;8.68;100.00;103105.06;6248247;28;20045;-76
2023/02/14 12:05:59;;;;;;;8.10;3.90;;;;;;;8.89;100.00;103097.03;6246585;28;20056;-78
2023/02/14 12:09:13;;;;;;;10.40;4.70;;;;;;;9.11;100.00;103088.97;6246990;28;20084;-76
2023/02/14 12:12:18;;;;;;;8.15;4.50;;;;;;;9.19;100.00;103076.66;6253182;28;20037;-76
2023/02/14 12:15:26;;;;;;;9.05;4.15;;;;;;;9.34;100.00;103080.88;6253095;28;20362;-76
2023/02/14 12:18:42;;;;;;;6.45;3.95;;;;;;;9.30;100.00;103072.16;6253491;28;20046;-76
2023/02/14 12:21:52;;;;;;;9.68;4.80;;;;;;;9.38;100.00;103072.06;6252656;28;20045;-75
2023/02/14 12:25:03;;;;;;;8.32;4.65;;;;;;;9.55;100.00;103074.50;6253171;28;20049;-76
2023/02/14 12:28:09;;;;;;;9.77;5.32;;;;;;;9.70;100.00;103071.69;6253210;28;20377;-75
2023/02/14 12:31:13;;;;;;;8.88;5.25;;;;;;;9.82;100.00;103063.69;6252910;28;20049;-75
2023/02/14 12:34:16;;;;;;;9.18;4.68;;;;;;;9.86;100.00;103059.25;6253092;28;20045;-76
2023/02/14 12:37:29;;;;;;;8.50;4.35;;;;;;;9.93;100.00;103063.53;6251589;28;20046;-76
2023/02/14 12:40:43;;;;;;;8.95;4.80;;;;;;;10.17;100.00;103054.41;6251703;28;20045;-77
2023/02/14 12:43:49;;;;;;;9.40;5.38;;;;;;;10.25;100.00;103049.09;6245708;28;20053;-79
2023/02/14 12:47:04;;;;;;;11.27;4.95;;;;;;;10.24;100.00;103055.22;6249378;28;20085;-79
2023/02/14 12:50:27;;;;;;;9.05;4.68;;;;;;;10.40;100.00;103048.84;6248348;28;20060;-80
2023/02/14 12:53:50;;;;;;;8.02;4.63;;;;;;;10.40;100.00;103036.59;6250456;28;20350;-79
2023/02/14 12:57:02;;;;;;;10.63;5.40;;;;;;;10.57;100.00;103035.44;6260346;28;20045;-80
2023/02/14 13:00:22;;;;;;;9.27;4.50;;;;;;;10.56;100.00;103026.69;6252535;28;20046;-81
2023/02/14 13:03:36;;;;;;;12.05;5.22;;;;;;;10.50;100.00;103018.91;6252563;28;20345;-79
2023/02/14 13:06:44;;;;;;;11.05;5.10;;;;;;;10.56;100.00;103026.69;6251665;28;20037;-80
2023/02/14 13:09:53;;;;;;;10.70;5.25;;;;;;;10.61;100.00;103023.97;6252308;28;20347;-79
2023/02/14 13:13:06;;;;;;;9.88;4.63;;;;;;;10.65;100.00;103018.66;6251579;28;20357;-80
2023/02/14 13:16:15;;;;;;;9.43;5.20;;;;;;;10.73;100.00;103004.50;6252003;28;20076;-79
2023/02/14 13:19:31;;;;;;;11.23;5.13;;;;;;;10.97;100.00;103004.06;6248649;28;20045;-80
2023/02/14 13:22:34;;;;;;;10.73;4.90;;;;;;;11.02;100.00;102999.56;6248087;28;20045;-79
2023/02/14 13:25:41;;;;;;;9.70;5.63;;;;;;;11.03;100.00;102992.53;6251118;28;20053;-78
2023/02/14 13:28:49;;;;;;;12.23;5.90;;;;;;;11.07;100.00;102989.81;6252211;28;20060;-81
2023/02/14 13:31:55;;;;;;;11.27;6.13;;;;;;;11.14;100.00;102991.44;6243007;28;20136;-78
2023/02/14 13:34:58;;;;;;;9.63;5.10;;;;;;;11.11;100.00;102986.22;6251632;28;20041;-78
2023/02/14 13:38:03;;;;;;;10.27;5.10;;;;;;;11.21;100.00;102980.78;6251084;28;20064;-79
2023/02/14 13:41:06;;;;;;;10.65;4.80;;;;;;;11.35;100.00;102984.00;6251721;28;20057;-79
2023/02/14 13:44:09;;;;;;;7.68;4.75;;;;;;;11.43;100.00;102975.03;6248595;28;20068;-78
2023/02/14 13:47:17;;;;;;;8.95;4.57;;;;;;;11.49;100.00;102978.44;6251126;28;20064;-78
2023/02/14 13:50:21;;;;;;;11.40;5.45;;;;;;;11.53;100.00;102977.47;6239942;28;20041;-79
2023/02/14 13:53:34;;;;;;;10.18;5.45;;;;;;;11.57;100.00;102968.63;6295187;27;20409;-77
2023/02/14 13:56:35;;;;;;;8.75;4.82;;;;;;;11.67;100.00;102973.66;6295622;28;20045;-78
2023/02/14 13:59:36;;;;;;;10.15;5.22;;;;;;;11.55;100.00;102971.28;6291302;28;20047;-79
2023/02/14 14:02:44;;;;;;;11.82;5.80;;;;;;;11.58;100.00;102965.06;6286571;28;20037;-79
2023/02/14 14:05:48;;;;;;;9.43;5.50;;;;;;;11.57;100.00;102960.72;6282794;28;20049;-79
2023/02/14 14:08:53;;;;;;;10.25;5.75;;;;;;;11.56;100.00;102954.59;6290078;28;20341;-79
2023/02/14 14:11:55;;;;;;;11.15;5.95;;;;;;;11.56;100.00;102949.31;6289539;28;20041;-81
2023/02/14 14:15:11;;;;;;;11.70;5.65;;;;;;;11.48;100.00;102945.13;6289019;28;20055;-79
2023/02/14 14:18:41;;;;;;;14.98;6.47;;;;;;;11.62;100.00;102948.31;6284529;28;20102;-83
2023/02/14 14:21:44;;;;;;;9.10;5.18;;;;;;;11.59;100.00;102945.75;6295976;28;20040;-79
2023/02/14 14:24:55;;;;;;;13.10;6.05;;;;;;;11.79;100.00;102950.56;6296218;28;20049;-78
2023/02/14 14:27:56;;;;;;;13.32;5.63;;;;;;;11.67;100.00;102946.44;6288352;28;20052;-82
2023/02/14 14:30:58;;;;;;;14.50;6.05;;;;;;;11.46;100.00;102941.66;6294331;28;20045;-79